createdAt,value
2019-05-03T00:02:03.972Z,97758.73
2019-05-03T00:04:33.747Z,97756.02
2019-05-03T00:07:03.631Z,97754.17
2019-05-03T00:09:33.267Z,97760.31
2019-05-03T00:12:02.907Z,97757.07
2019-05-03T00:14:32.813Z,97752.23
2019-05-03T00:17:02.540Z,97749.84
2019-05-03T00:19:32.746Z,97753.61
2019-05-03T00:22:02.763Z,97747.47
2019-05-03T00:24:32.501Z,97757.64
2019-05-03T00:27:02.133Z,97751.73
2019-05-03T00:29:32.502Z,97750.11
2019-05-03T00:32:02.383Z,97753.31
2019-05-03T00:34:41.804Z,97755.45
2019-05-03T00:37:22.179Z,97748.22
2019-05-03T00:39:57.736Z,97742.85
2019-05-03T00:42:27.364Z,97748.80
2019-05-03T00:44:56.992Z,97744.47
2019-05-03T00:47:26.742Z,97740.50
2019-05-03T00:49:56.381Z,97740.20
2019-05-03T00:52:26.051Z,97738.03
2019-05-03T00:54:55.682Z,97730.81
2019-05-03T00:57:26.122Z,97735.38
2019-05-03T00:59:55.768Z,97738.32
2019-05-03T01:02:26.338Z,97731.34
2019-05-03T01:04:56.051Z,97734.04
2019-05-03T01:07:25.731Z,97734.03
2019-05-03T01:09:55.364Z,97732.44
2019-05-03T01:12:25.007Z,97732.16
2019-05-03T01:14:56.320Z,97734.55
2019-05-03T01:17:25.952Z,97738.30
2019-05-03T01:19:55.617Z,97738.05
2019-05-03T01:22:25.326Z,97737.01
2019-05-03T01:24:54.987Z,97738.64
2019-05-03T01:27:24.764Z,97734.88
2019-05-03T01:29:54.432Z,97735.14
2019-05-03T01:32:24.064Z,97737.28
2019-05-03T01:34:53.706Z,97735.96
2019-05-03T01:37:23.371Z,97740.77
2019-05-03T01:39:53.082Z,97738.38
2019-05-03T01:42:22.815Z,97742.12
2019-05-03T01:44:52.457Z,97739.41
2019-05-03T01:47:23.745Z,97739.43
2019-05-03T01:49:55.023Z,97743.99
2019-05-03T01:52:26.325Z,97745.31
2019-05-03T01:54:56.009Z,97738.39
2019-05-03T01:57:25.683Z,97742.67
2019-05-03T01:59:55.380Z,97739.20
2019-05-03T02:02:42.044Z,97743.49
2019-05-03T02:05:14.756Z,97742.16
2019-05-03T02:07:44.877Z,97739.72
2019-05-03T02:10:14.645Z,97746.14
2019-05-03T02:12:44.277Z,97744.01
2019-05-03T02:15:14.065Z,97740.30
2019-05-03T02:17:43.686Z,97741.88
2019-05-03T02:20:13.485Z,97744.02
2019-05-03T02:22:43.112Z,97746.69
2019-05-03T02:25:13.271Z,97746.95
2019-05-03T02:27:42.905Z,97749.90
2019-05-03T02:30:14.408Z,97744.82
2019-05-03T02:32:44.414Z,97739.74
2019-05-03T02:35:14.395Z,97745.36
2019-05-03T02:37:46.054Z,97743.20
2019-05-03T02:40:20.389Z,97732.23
2019-05-03T02:43:06.261Z,97733.84
2019-05-03T02:45:38.172Z,97734.63
2019-05-03T02:48:25.762Z,97735.73
2019-05-03T02:50:56.196Z,97738.65
2019-05-03T02:53:26.968Z,97747.77
2019-05-03T02:56:13.048Z,97749.08
2019-05-03T02:58:27.972Z,97754.44
2019-05-03T03:01:01.780Z,97757.11
2019-05-03T03:03:36.075Z,97754.44
2019-05-03T03:06:07.004Z,97752.86
2019-05-03T03:08:38.987Z,97755.25
2019-05-03T03:11:11.548Z,97755.77
2019-05-03T03:13:45.754Z,97752.84
2019-05-03T03:16:17.346Z,97748.84
2019-05-03T03:18:47.212Z,97742.95
2019-05-03T03:21:18.564Z,97746.94
2019-05-03T03:24:07.313Z,97741.58
2019-05-03T03:26:43.148Z,97742.66
2019-05-03T03:29:16.093Z,97744.00
2019-05-03T03:32:10.351Z,97745.63
2019-05-03T03:35:00.587Z,97755.25
2019-05-03T03:37:22.064Z,97754.47
2019-05-03T03:39:52.806Z,97759.55
2019-05-03T03:42:25.179Z,97750.98
2019-05-03T03:44:57.087Z,97756.35
2019-05-03T03:47:29.957Z,97750.95
2019-05-03T03:50:02.137Z,97759.56
2019-05-03T03:52:36.083Z,97763.04
2019-05-03T03:55:07.060Z,97761.13
2019-05-03T03:57:37.108Z,97763.80
2019-05-03T04:00:08.929Z,97759.28
2019-05-03T04:02:40.228Z,97760.63
2019-05-03T04:05:10.897Z,97763.29
2019-05-03T04:07:40.748Z,97764.38
2019-05-03T04:10:11.890Z,97765.71
2019-05-03T04:12:45.417Z,97765.98
2019-05-03T04:15:29.078Z,97773.75
2019-05-03T04:18:10.391Z,97776.42
2019-05-03T04:20:40.164Z,97776.69
2019-05-03T04:23:09.890Z,97771.05
2019-05-03T04:25:40.287Z,97780.17
2019-05-03T04:28:10.365Z,97786.05
2019-05-03T04:30:40.071Z,97784.97
2019-05-03T04:33:09.711Z,97784.44
2019-05-03T04:35:39.362Z,97788.73
2019-05-03T04:38:08.999Z,97789.80
2019-05-03T04:40:38.722Z,97790.86
2019-05-03T04:43:08.344Z,97798.64
2019-05-03T04:45:37.999Z,97798.35
2019-05-03T04:48:07.798Z,97799.16
2019-05-03T04:50:37.459Z,97797.57
2019-05-03T04:53:07.177Z,97801.28
2019-05-03T04:55:36.826Z,97798.11
2019-05-03T04:58:06.442Z,97797.02
2019-05-03T05:00:36.283Z,97799.16
2019-05-03T05:03:06.225Z,97807.21
2019-05-03T05:05:36.519Z,97800.52
2019-05-03T05:08:06.459Z,97806.69
2019-05-03T05:10:36.489Z,97810.42
2019-05-03T05:13:06.346Z,97813.10
2019-05-03T05:15:36.044Z,97806.94
2019-05-03T05:18:16.050Z,97814.20
2019-05-03T05:20:56.696Z,97812.05
2019-05-03T05:23:26.391Z,97824.11
2019-05-03T05:26:05.528Z,97821.14
2019-05-03T05:28:45.807Z,97819.81
2019-05-03T05:31:15.544Z,97825.70
2019-05-03T05:33:45.245Z,97830.23
2019-05-03T05:36:15.348Z,97827.31
2019-05-03T05:38:45.208Z,97838.02
2019-05-03T05:41:15.619Z,97834.81
2019-05-03T05:43:45.556Z,97834.55
2019-05-03T05:46:15.556Z,97837.75
2019-05-03T05:48:46.861Z,97839.06
2019-05-03T05:51:16.499Z,97837.20
2019-05-03T05:53:46.165Z,97842.30
2019-05-03T05:56:35.343Z,97844.98
2019-05-03T05:59:12.312Z,97845.23
2019-05-03T06:01:45.490Z,97848.19
2019-05-03T06:04:15.919Z,97851.67
2019-05-03T06:07:04.628Z,97852.48
2019-05-03T06:09:36.089Z,97857.84
2019-05-03T06:12:07.421Z,97860.77
2019-05-03T06:14:38.701Z,97860.80
2019-05-03T06:17:18.845Z,97868.83
2019-05-03T06:19:56.359Z,97866.94
2019-05-03T06:22:27.615Z,97871.23
2019-05-03T06:25:06.390Z,97872.83
2019-05-03T06:27:37.665Z,97877.66
2019-05-03T06:30:24.844Z,97879.55
2019-05-03T06:32:55.118Z,97887.31
2019-05-03T06:35:24.894Z,97890.53
2019-05-03T06:37:54.656Z,97888.91
2019-05-03T06:40:25.261Z,97894.55
2019-05-03T06:43:08.656Z,97906.61
2019-05-03T06:45:27.225Z,97921.05
2019-05-03T06:47:56.883Z,97926.41
2019-05-03T06:52:59.836Z,97926.60
2019-05-03T06:55:28.238Z,97937.53
2019-05-03T06:57:57.866Z,97937.28
2019-05-03T07:00:35.172Z,97935.37
2019-05-03T07:03:09.249Z,97931.66
2019-05-03T07:05:47.516Z,97933.26
2019-05-03T07:08:34.914Z,97939.39
2019-05-03T07:11:06.493Z,97944.21
2019-05-03T07:13:36.122Z,97944.50
2019-05-03T07:16:06.091Z,97944.75
2019-05-03T07:18:35.715Z,97943.69
2019-05-03T07:21:05.467Z,97944.78
2019-05-03T07:23:35.186Z,97947.20
2019-05-03T07:26:05.333Z,97948.30
2019-05-03T07:28:46.314Z,97949.41
2019-05-03T07:31:06.773Z,97956.59
2019-05-03T07:33:36.760Z,97957.72
2019-05-03T07:36:06.923Z,97955.34
2019-05-03T07:38:36.718Z,97959.88
2019-05-03T07:41:06.489Z,97955.05
2019-05-03T07:43:36.282Z,97968.69
2019-05-03T07:46:06.353Z,97963.37
2019-05-03T07:48:36.856Z,97968.73
2019-05-03T07:51:06.497Z,97967.34
2019-05-03T07:53:36.120Z,97972.98
2019-05-03T07:56:10.379Z,97971.65
2019-05-03T07:58:46.216Z,97967.91
2019-05-03T08:01:16.012Z,97969.50
2019-05-03T08:03:46.341Z,97972.45
2019-05-03T08:06:15.992Z,97973.52
2019-05-03T08:08:45.617Z,97972.18
2019-05-03T08:11:15.267Z,97967.05
2019-05-03T08:13:44.976Z,97975.08
2019-05-03T08:16:16.056Z,97978.62
2019-05-03T08:18:45.925Z,97974.31
2019-05-03T08:21:15.593Z,97976.19
2019-05-03T08:23:45.453Z,97975.38
2019-05-03T08:26:15.409Z,97973.27
2019-05-03T08:28:45.251Z,97970.02
2019-05-03T08:31:31.723Z,97976.46
2019-05-03T08:34:01.141Z,97972.17
2019-05-03T08:36:32.479Z,97971.64
2019-05-03T08:39:02.154Z,97979.16
2019-05-03T08:41:35.070Z,97981.84
2019-05-03T08:44:05.249Z,97985.05
2019-05-03T08:46:35.568Z,97982.66
2019-05-03T08:49:05.370Z,97984.23
2019-05-03T08:51:35.288Z,97983.70
2019-05-03T08:54:04.965Z,97983.70
2019-05-03T08:56:35.892Z,97986.39
2019-05-03T08:59:05.544Z,97976.78
2019-05-03T09:01:37.833Z,97983.48
2019-05-03T09:04:06.730Z,97980.53
2019-05-03T09:06:36.444Z,97981.86
2019-05-03T09:09:09.547Z,97981.61
2019-05-03T09:11:39.197Z,97985.88
2019-05-03T09:14:10.470Z,97990.39
2019-05-03T09:16:40.123Z,97993.61
2019-05-03T09:19:09.738Z,97998.71
2019-05-03T09:21:39.474Z,97997.63
2019-05-03T09:24:09.465Z,97996.33
2019-05-03T09:26:39.161Z,97996.34
2019-05-03T09:29:08.944Z,97989.91
2019-05-03T09:31:39.041Z,97994.50
2019-05-03T09:34:08.708Z,97991.02
2019-05-03T09:36:38.330Z,97987.27
2019-05-03T09:39:09.423Z,97989.95
2019-05-03T09:41:39.045Z,97989.14
2019-05-03T09:44:08.706Z,97992.64
2019-05-03T09:46:38.324Z,97991.83
2019-05-03T09:49:13.158Z,97989.17
2019-05-03T09:51:39.409Z,97981.66
2019-05-03T09:54:14.833Z,97985.68
2019-05-03T09:57:00.147Z,97987.80
2019-05-03T09:59:30.669Z,97993.17
2019-05-03T10:02:01.982Z,97993.45
2019-05-03T10:04:31.658Z,97992.11
2019-05-03T10:07:01.321Z,97990.77
2019-05-03T10:09:30.945Z,97991.83
2019-05-03T10:12:01.764Z,97987.81
2019-05-03T10:14:31.459Z,97991.83
2019-05-03T10:17:04.954Z,97992.92
2019-05-03T10:19:39.956Z,97997.72
2019-05-03T10:22:06.257Z,97997.47
2019-05-03T10:24:36.058Z,97999.09
2019-05-03T10:27:05.904Z,97994.78
2019-05-03T10:29:35.699Z,97990.52
2019-05-03T10:32:10.141Z,97983.80
2019-05-03T10:34:41.431Z,97982.95
2019-05-03T10:37:15.073Z,97977.88
2019-05-03T10:39:45.516Z,97975.47
2019-05-03T10:42:15.243Z,97975.48
2019-05-03T10:44:45.031Z,97978.44
2019-05-03T10:47:14.805Z,97984.59
2019-05-03T10:49:45.773Z,97981.11
2019-05-03T10:52:16.783Z,97984.31
2019-05-03T10:54:46.411Z,97984.59
2019-05-03T10:57:20.524Z,97986.74
2019-05-03T10:59:50.146Z,97992.11
2019-05-03T11:02:25.444Z,97983.54
2019-05-03T11:04:55.234Z,97985.12
2019-05-03T11:07:25.716Z,97976.84
2019-05-03T11:09:55.566Z,97977.61
2019-05-03T11:12:25.522Z,97974.69
2019-05-03T11:14:55.221Z,97972.55
2019-05-03T11:17:25.610Z,97975.75
2019-05-03T11:19:55.379Z,97963.95
2019-05-03T11:22:25.355Z,97961.52
2019-05-03T11:24:55.147Z,97956.41
2019-05-03T11:27:26.428Z,97957.75
2019-05-03T11:29:56.913Z,97957.48
2019-05-03T11:32:35.399Z,97958.81
2019-05-03T11:35:11.650Z,97955.34
2019-05-03T11:37:48.675Z,97953.17
2019-05-03T11:40:18.529Z,97948.88
2019-05-03T11:42:48.927Z,97951.57
2019-05-03T11:45:19.683Z,97944.29
2019-05-03T11:47:49.309Z,97943.73
2019-05-03T11:50:19.190Z,97941.31
2019-05-03T11:52:48.888Z,97935.86
2019-05-03T11:55:18.590Z,97935.26
2019-05-03T11:57:48.294Z,97937.61
2019-05-03T12:00:25.283Z,97934.91
2019-05-03T12:02:56.613Z,97937.84
2019-05-03T12:05:27.876Z,97928.95
2019-05-03T12:07:57.529Z,97927.46
2019-05-03T12:10:50.230Z,97930.72
2019-05-03T12:13:06.003Z,97927.64
2019-05-03T12:15:35.696Z,97921.37
2019-05-03T12:18:08.014Z,97913.20
2019-05-03T12:20:39.524Z,97907.02
2019-05-03T12:23:10.364Z,97913.03
2019-05-03T12:25:41.017Z,97908.66
2019-05-03T12:28:11.269Z,97902.64
2019-05-03T12:30:41.387Z,97909.28
2019-05-03T12:33:11.197Z,97909.91
2019-05-03T12:35:40.837Z,97912.46
2019-05-03T12:38:10.458Z,97906.83
2019-05-03T12:40:40.109Z,97904.80
2019-05-03T12:43:09.874Z,97901.41
2019-05-03T12:45:39.540Z,97896.53
2019-05-03T12:48:09.173Z,97882.85
2019-05-03T12:50:39.061Z,97879.09
2019-05-03T12:53:09.039Z,97877.38
2019-05-03T12:55:38.663Z,97875.26
2019-05-03T12:58:08.375Z,97868.88
2019-05-03T13:00:42.043Z,97875.64
2019-05-03T13:03:15.251Z,97856.30
2019-05-03T13:05:45.059Z,97854.19
2019-05-03T13:08:40.520Z,97853.75
2019-05-03T13:11:10.359Z,97845.72
2019-05-03T13:13:40.010Z,97847.37
2019-05-03T13:16:11.508Z,97846.34
2019-05-03T13:18:41.184Z,97844.48
2019-05-03T13:21:10.926Z,97841.22
2019-05-03T13:23:40.554Z,97836.45
2019-05-03T13:26:10.196Z,97836.48
2019-05-03T13:28:39.821Z,97839.17
2019-05-03T13:31:09.541Z,97837.61
2019-05-03T13:33:39.228Z,97830.28
2019-05-03T13:36:08.902Z,97824.13
2019-05-03T13:38:38.535Z,97817.52
2019-05-03T13:41:08.182Z,97816.70
2019-05-03T13:43:37.870Z,97813.17
2019-05-03T13:46:07.976Z,97812.62
2019-05-03T13:48:45.589Z,97811.89
2019-05-03T13:51:08.959Z,97807.03
2019-05-03T13:53:38.592Z,97800.34
2019-05-03T13:56:08.296Z,97805.34
2019-05-03T13:58:37.935Z,97798.53
2019-05-03T14:01:07.769Z,97799.91
2019-05-03T14:03:37.417Z,97801.17
2019-05-03T14:06:09.346Z,97798.00
2019-05-03T14:08:38.473Z,97802.65
2019-05-03T14:11:08.094Z,97796.96
2019-05-03T14:13:37.757Z,97792.86
2019-05-03T14:16:07.462Z,97788.85
2019-05-03T14:18:37.172Z,97792.19
2019-05-03T14:21:24.598Z,97792.15
2019-05-03T14:24:07.917Z,97785.48
2019-05-03T14:26:37.987Z,97784.49
2019-05-03T14:29:08.043Z,97775.45
2019-05-03T14:31:37.674Z,97775.87
2019-05-03T14:34:07.323Z,97776.22
2019-05-03T14:36:37.008Z,97776.22
2019-05-03T14:39:10.349Z,97773.53
2019-05-03T14:41:40.222Z,97772.09
2019-05-03T14:44:09.910Z,97777.58
2019-05-03T14:46:39.931Z,97786.06
2019-05-03T14:49:09.621Z,97783.56
2019-05-03T14:51:39.269Z,97788.20
2019-05-03T14:54:10.175Z,97782.02
2019-05-03T14:56:45.539Z,97783.70
2019-05-03T14:59:34.648Z,97773.48
2019-05-03T15:02:24.562Z,97767.61
2019-05-03T15:04:54.879Z,97775.08
2019-05-03T15:07:25.558Z,97775.99
2019-05-03T15:09:55.464Z,97773.97
2019-05-03T15:12:25.359Z,97774.27
2019-05-03T15:14:54.979Z,97773.41
2019-05-03T15:17:24.766Z,97783.22
2019-05-03T15:19:54.827Z,97766.28
2019-05-03T15:22:25.377Z,97771.28
2019-05-03T15:24:55.175Z,97774.96
2019-05-03T15:27:25.006Z,97771.05
2019-05-03T15:29:55.502Z,97777.84
2019-05-03T15:32:25.347Z,97767.63
2019-05-03T15:34:55.409Z,97775.21
2019-05-03T15:37:25.647Z,97779.51
2019-05-03T15:39:55.507Z,97781.98
2019-05-03T15:42:26.703Z,97786.82
2019-05-03T15:44:57.960Z,97790.09
2019-05-03T15:47:29.258Z,97789.95
2019-05-03T15:49:58.878Z,97793.48
2019-05-03T15:52:28.529Z,97794.36
2019-05-03T15:54:58.225Z,97784.42
2019-05-03T15:57:27.870Z,97790.57
2019-05-03T15:59:57.494Z,97784.13
2019-05-03T16:02:27.221Z,97783.84
2019-05-03T16:04:58.744Z,97786.25
2019-05-03T16:07:28.214Z,97788.11
2019-05-03T16:09:57.835Z,97786.53
2019-05-03T16:12:27.505Z,97785.20
2019-05-03T16:14:57.131Z,97786.56
2019-05-03T16:17:26.751Z,97791.67
2019-05-03T16:19:56.404Z,97790.11
2019-05-03T16:22:26.194Z,97787.38
2019-05-03T16:24:55.851Z,97786.25
2019-05-03T16:27:25.247Z,97783.64
2019-05-03T16:29:54.987Z,97776.72
2019-05-03T16:32:24.600Z,97775.08
2019-05-03T16:34:55.024Z,97780.46
2019-05-03T16:37:25.508Z,97788.77
2019-05-03T16:39:57.730Z,97791.45
2019-05-03T16:42:26.656Z,97787.73
2019-05-03T16:44:56.306Z,97793.38
2019-05-03T16:47:25.944Z,97798.52
2019-05-03T16:49:55.573Z,97791.06
2019-05-03T16:52:25.654Z,97788.10
2019-05-03T16:54:55.440Z,97791.81
2019-05-03T16:57:25.097Z,97789.94
2019-05-03T16:59:55.082Z,97782.75
2019-05-03T17:02:24.854Z,97787.33
2019-05-03T17:04:56.124Z,97787.31
2019-05-03T17:07:30.162Z,97787.31
2019-05-03T17:10:07.475Z,97789.95
2019-05-03T17:12:38.480Z,97795.11
2019-05-03T17:15:10.483Z,97794.05
2019-05-03T17:17:40.105Z,97801.86
2019-05-03T17:20:10.566Z,97803.23
2019-05-03T17:22:40.185Z,97794.95
2019-05-03T17:25:09.916Z,97797.38
2019-05-03T17:27:39.538Z,97797.38
2019-05-03T17:30:09.690Z,97799.80
2019-05-03T17:32:39.400Z,97803.27
2019-05-03T17:35:09.180Z,97804.57
2019-05-03T17:37:38.797Z,97803.02
2019-05-03T17:40:25.875Z,97803.86
2019-05-03T17:43:12.138Z,97808.15
2019-05-03T17:45:46.079Z,97807.91
2019-05-03T17:48:15.701Z,97807.91
2019-05-03T17:50:45.527Z,97805.73
2019-05-03T17:53:34.554Z,97807.59
2019-05-03T17:56:12.203Z,97809.55
2019-05-03T17:58:41.591Z,97811.45
2019-05-03T18:01:28.057Z,97809.83
2019-05-03T18:04:06.603Z,97802.33
2019-05-03T18:06:41.207Z,97809.35
2019-05-03T18:09:15.247Z,97807.75
2019-05-03T18:11:46.517Z,97805.34
2019-05-03T18:14:16.170Z,97810.70
2019-05-03T18:16:45.802Z,97809.57
2019-05-03T18:19:15.456Z,97815.77
2019-05-03T18:21:45.067Z,97817.41
2019-05-03T18:24:15.391Z,97818.53
2019-05-03T18:26:45.112Z,97813.41
2019-05-03T18:29:14.795Z,97817.98
2019-05-03T18:31:44.656Z,97822.55
2019-05-03T18:34:21.526Z,97818.00
2019-05-03T18:36:45.689Z,97818.48
2019-05-03T18:39:15.386Z,97820.13
2019-05-03T18:41:45.279Z,97822.59
2019-05-03T18:44:16.667Z,97822.06
2019-05-03T18:46:50.767Z,97823.70
2019-05-03T18:49:20.400Z,97825.83
2019-05-03T18:51:50.042Z,97833.34
2019-05-03T18:54:19.660Z,97835.48
2019-05-03T18:56:49.371Z,97846.73
2019-05-03T18:59:19.003Z,97843.02
2019-05-03T19:01:48.653Z,97850.25
2019-05-03T19:04:31.285Z,97846.53
2019-05-03T19:07:01.955Z,97847.84
2019-05-03T19:09:25.062Z,97852.13
2019-05-03T19:11:57.205Z,97857.47
2019-05-03T19:14:28.011Z,97862.60
2019-05-03T19:17:15.390Z,97861.03
2019-05-03T19:19:49.809Z,97863.16
2019-05-03T19:22:18.627Z,97859.70
2019-05-03T19:24:48.309Z,97853.53
2019-05-03T19:27:19.480Z,97857.56
2019-05-03T19:29:49.163Z,97858.09
2019-05-03T19:32:18.892Z,97861.30
2019-05-03T19:34:51.389Z,97863.16
2019-05-03T19:37:19.906Z,97862.92
2019-05-03T19:39:49.538Z,97864.49
2019-05-03T19:42:19.166Z,97863.45
2019-05-03T19:44:48.984Z,97870.17
2019-05-03T19:47:18.615Z,97862.66
2019-05-03T19:49:48.237Z,97868.80
2019-05-03T19:52:19.528Z,97857.57
2019-05-03T19:54:49.151Z,97855.42
2019-05-03T19:57:20.438Z,97860.52
2019-05-03T19:59:56.944Z,97864.26
2019-05-03T20:02:45.263Z,97866.41
2019-05-03T20:05:31.590Z,97864.02
2019-05-03T20:08:05.527Z,97866.94
2019-05-03T20:10:35.524Z,97858.11
2019-05-03T20:13:05.381Z,97861.31
2019-05-03T20:15:35.004Z,97855.97
2019-05-03T20:18:04.966Z,97861.34
2019-05-03T20:20:36.263Z,97861.84
2019-05-03T20:23:05.906Z,97859.45
2019-05-03T20:25:35.531Z,97864.80
2019-05-03T20:28:05.548Z,97865.86
2019-05-03T20:30:35.724Z,97860.78
2019-05-03T20:33:05.530Z,97859.98
2019-05-03T20:35:35.749Z,97861.60
2019-05-03T20:38:05.428Z,97863.99
2019-05-03T20:40:35.207Z,97855.69
2019-05-03T20:43:22.748Z,97851.95
2019-05-03T20:45:54.761Z,97851.39
2019-05-03T20:48:25.012Z,97859.14
2019-05-03T20:50:55.181Z,97857.52
2019-05-03T20:53:25.158Z,97861.28
2019-05-03T20:55:56.526Z,97864.00
2019-05-03T20:58:26.160Z,97866.95
2019-05-03T21:00:55.937Z,97860.26
2019-05-03T21:03:25.559Z,97864.28
2019-05-03T21:05:55.391Z,97865.05
2019-05-03T21:08:25.560Z,97856.49
2019-05-03T21:10:55.337Z,97861.28
2019-05-03T21:13:33.172Z,97860.47
2019-05-03T21:16:08.066Z,97863.16
2019-05-03T21:19:04.978Z,97861.32
2019-05-03T21:21:38.919Z,97853.81
2019-05-03T21:24:26.364Z,97854.03
2019-05-03T21:26:56.357Z,97850.02
2019-05-03T21:29:26.000Z,97848.14
2019-05-03T21:31:55.622Z,97848.14
2019-05-03T21:34:25.305Z,97847.08
2019-05-03T21:36:54.966Z,97849.48
2019-05-03T21:39:24.813Z,97842.79
2019-05-03T21:41:55.581Z,97850.30
2019-05-03T21:44:32.354Z,97848.42
2019-05-03T21:47:04.719Z,97843.02
2019-05-03T21:49:44.867Z,97852.66
2019-05-03T21:52:14.730Z,97846.27
2019-05-03T21:54:45.102Z,97844.41
2019-05-03T21:57:16.579Z,97844.13
2019-05-03T21:59:46.123Z,97849.20
2019-05-03T22:02:15.778Z,97847.33
2019-05-03T22:04:45.463Z,97845.75
2019-05-03T22:07:15.110Z,97841.98
2019-05-03T22:09:45.297Z,97838.00
2019-05-03T22:12:15.156Z,97832.89
2019-05-03T22:14:46.420Z,97836.91
2019-05-03T22:17:22.952Z,97832.36
2019-05-03T22:19:54.586Z,97840.10
2019-05-03T22:22:45.241Z,97834.46
2019-05-03T22:25:16.561Z,97834.17
2019-05-03T22:27:46.229Z,97823.22
2019-05-03T22:30:16.153Z,97830.72
2019-05-03T22:32:45.785Z,97825.91
2019-05-03T22:35:15.745Z,97826.71
2019-05-03T22:37:45.437Z,97821.36
2019-05-03T22:40:15.151Z,97815.20
2019-05-03T22:42:44.950Z,97811.18
2019-05-03T22:45:14.741Z,97805.02
2019-05-03T22:47:44.636Z,97807.17
2019-05-03T22:50:14.872Z,97793.51
2019-05-03T22:52:45.522Z,97796.18
2019-05-03T22:55:15.509Z,97795.92
2019-05-03T22:57:45.127Z,97791.88
2019-05-03T23:00:15.556Z,97789.76
2019-05-03T23:02:45.630Z,97786.80
2019-05-03T23:05:15.440Z,97776.63
2019-05-03T23:07:46.933Z,97776.63
2019-05-03T23:10:17.405Z,97771.84
2019-05-03T23:12:47.246Z,97771.28
2019-05-03T23:15:17.177Z,97767.02
2019-05-03T23:17:46.831Z,97765.91
2019-05-03T23:20:26.791Z,97767.19
2019-05-03T23:22:56.439Z,97759.45
2019-05-03T23:25:26.059Z,97756.78
2019-05-03T23:27:55.768Z,97763.22
2019-05-03T23:30:25.393Z,97754.64
2019-05-03T23:32:55.014Z,97755.63
2019-05-03T23:35:24.803Z,97754.89
2019-05-03T23:37:54.505Z,97753.55
2019-05-03T23:40:25.409Z,97753.30
2019-05-03T23:42:55.159Z,97759.16
2019-05-03T23:45:25.556Z,97754.58
2019-05-03T23:47:55.307Z,97743.39
2019-05-03T23:50:25.043Z,97743.40
2019-05-03T23:52:54.659Z,97745.28
2019-05-03T23:55:31.938Z,97739.16
2019-05-03T23:58:01.552Z,97741.02
